createdAt,value
2023-04-22T00:00:23.465Z,8.57
2023-04-22T00:04:35.965Z,7.75
2023-04-22T00:08:48.418Z,8.32
2023-04-22T00:13:01.069Z,8.25
2023-04-22T00:17:13.406Z,7.43
2023-04-22T00:21:25.759Z,7.38
2023-04-22T00:25:38.135Z,6.47
2023-04-22T00:29:50.516Z,6.75
2023-04-22T00:34:04.228Z,6.80
2023-04-22T00:38:16.745Z,7.32
2023-04-22T00:42:29.641Z,7.10
2023-04-22T00:46:45.882Z,6.80
2023-04-22T00:50:58.347Z,6.70
2023-04-22T00:55:12.169Z,7.47
2023-04-22T00:59:25.950Z,7.75
2023-04-22T01:03:40.312Z,7.45
2023-04-22T01:07:53.104Z,7.55
2023-04-22T01:12:06.110Z,8.25
2023-04-22T01:16:19.450Z,7.28
2023-04-22T01:20:32.219Z,7.90
2023-04-22T01:24:44.643Z,7.88
2023-04-22T01:28:57.237Z,8.30
2023-04-22T01:33:10.779Z,8.07
2023-04-22T01:37:23.421Z,8.07
2023-04-22T01:41:36.135Z,7.80
2023-04-22T01:45:48.468Z,8.60
2023-04-22T01:50:00.892Z,8.00
2023-04-22T01:54:13.490Z,8.13
2023-04-22T01:58:28.985Z,8.65
2023-04-22T02:02:42.622Z,8.57
2023-04-22T02:06:55.039Z,8.57
2023-04-22T02:11:07.363Z,9.40
2023-04-22T02:15:20.240Z,8.75
2023-04-22T02:19:32.821Z,8.60
2023-04-22T02:23:46.804Z,8.85
2023-04-22T02:27:59.182Z,8.80
2023-04-22T02:32:11.761Z,9.18
2023-04-22T02:36:25.432Z,8.65
2023-04-22T02:40:37.930Z,8.75
2023-04-22T02:44:52.029Z,9.10
2023-04-22T02:49:05.746Z,9.50
2023-04-22T02:53:18.009Z,9.45
2023-04-22T02:57:30.508Z,10.65
2023-04-22T03:01:42.951Z,9.88
2023-04-22T03:06:01.726Z,11.00
2023-04-22T03:10:14.048Z,10.68
2023-04-22T03:14:26.695Z,11.13
2023-04-22T03:18:39.460Z,10.30
2023-04-22T03:22:52.380Z,9.95
2023-04-22T03:27:05.626Z,8.95
2023-04-22T03:31:18.102Z,9.40
2023-04-22T03:35:31.791Z,9.63
2023-04-22T03:39:46.296Z,9.25
2023-04-22T03:44:01.633Z,9.15
2023-04-22T03:48:15.715Z,8.95
2023-04-22T03:52:33.172Z,8.93
2023-04-22T03:56:47.769Z,8.85
2023-04-22T04:01:00.801Z,8.45
2023-04-22T04:05:14.177Z,8.13
2023-04-22T04:09:27.660Z,7.40
2023-04-22T04:13:39.978Z,8.25
2023-04-22T04:18:21.859Z,7.63
2023-04-22T04:22:35.708Z,7.95
2023-04-22T04:26:49.275Z,8.60
2023-04-22T04:31:06.883Z,9.00
2023-04-22T04:35:20.641Z,8.05
2023-04-22T04:39:37.311Z,8.88
2023-04-22T04:43:52.143Z,8.07
2023-04-22T04:48:15.692Z,8.30
2023-04-22T04:52:35.952Z,7.57
2023-04-22T04:56:48.794Z,6.95
2023-04-22T05:01:01.129Z,8.10
2023-04-22T05:05:14.091Z,8.90
2023-04-22T05:09:28.571Z,8.98
2023-04-22T05:13:41.103Z,9.30
2023-04-22T05:17:57.354Z,8.95
2023-04-22T05:22:11.573Z,12.45
2023-04-22T05:26:24.109Z,15.82
2023-04-22T05:30:36.887Z,15.23
2023-04-22T05:34:49.437Z,11.50
2023-04-22T05:39:01.866Z,11.32
2023-04-22T05:43:16.094Z,11.73
2023-04-22T05:47:33.934Z,11.30
2023-04-22T05:51:46.782Z,12.25
2023-04-22T05:56:02.670Z,12.20
2023-04-22T06:00:15.888Z,13.13
2023-04-22T06:04:38.062Z,11.38
2023-04-22T06:08:51.406Z,11.45
2023-04-22T06:13:03.944Z,12.57
2023-04-22T06:17:16.361Z,12.40
2023-04-22T06:21:29.018Z,12.07
2023-04-22T06:25:42.408Z,11.10
2023-04-22T06:29:55.152Z,9.95
2023-04-22T06:34:07.581Z,10.30
2023-04-22T06:38:20.787Z,7.63
2023-04-22T06:43:00.123Z,8.68
2023-04-22T06:47:28.305Z,9.02
2023-04-22T06:51:54.892Z,8.45
2023-04-22T06:56:07.394Z,8.70
2023-04-22T07:00:19.856Z,8.40
2023-04-22T07:04:32.804Z,7.97
2023-04-22T07:08:46.032Z,8.23
2023-04-22T07:12:58.369Z,7.60
2023-04-22T07:17:11.943Z,7.07
2023-04-22T07:21:24.311Z,7.55
2023-04-22T07:25:36.791Z,7.13
2023-04-22T07:29:49.156Z,6.70
2023-04-22T07:34:01.615Z,7.05
2023-04-22T07:38:14.680Z,6.78
2023-04-22T07:42:27.268Z,5.63
2023-04-22T07:46:40.253Z,5.13
2023-04-22T07:50:52.623Z,5.90
2023-04-22T07:55:05.464Z,5.88
2023-04-22T07:59:17.673Z,5.30
2023-04-22T08:03:30.133Z,6.28
2023-04-22T08:07:42.829Z,6.57
2023-04-22T08:11:55.292Z,5.70
2023-04-22T08:16:07.969Z,5.78
2023-04-22T08:20:20.588Z,5.18
2023-04-22T08:24:33.029Z,4.65
2023-04-22T08:28:45.504Z,5.00
2023-04-22T08:32:57.903Z,5.15
2023-04-22T08:37:10.449Z,4.50
2023-04-22T08:41:24.873Z,4.50
2023-04-22T08:45:40.175Z,4.43
2023-04-22T08:49:55.396Z,3.92
2023-04-22T08:54:07.825Z,3.83
2023-04-22T08:58:20.339Z,3.85
2023-04-22T09:02:33.675Z,3.78
2023-04-22T09:06:46.304Z,3.90
2023-04-22T09:10:59.670Z,3.40
2023-04-22T09:15:12.697Z,3.70
2023-04-22T09:19:25.937Z,3.55
2023-04-22T09:23:50.484Z,4.05
2023-04-22T09:28:03.562Z,3.97
2023-04-22T09:32:16.696Z,3.78
2023-04-22T09:36:30.537Z,4.00
2023-04-22T09:40:44.591Z,4.40
2023-04-22T09:45:01.257Z,4.55
2023-04-22T09:49:16.923Z,4.97
2023-04-22T09:53:30.249Z,5.22
2023-04-22T09:57:43.880Z,4.28
2023-04-22T10:01:59.095Z,3.80
2023-04-22T10:06:12.497Z,4.18
2023-04-22T10:10:25.032Z,4.20
2023-04-22T10:14:37.501Z,3.95
2023-04-22T10:18:51.269Z,4.13
2023-04-22T10:23:06.315Z,3.67
2023-04-22T10:27:22.690Z,3.78
2023-04-22T10:31:35.415Z,3.42
2023-04-22T10:36:08.706Z,3.42
2023-04-22T10:40:23.091Z,3.55
2023-04-22T10:44:54.711Z,3.55
2023-04-22T10:49:11.707Z,3.67
2023-04-22T10:53:50.529Z,3.72
2023-04-22T10:58:03.023Z,3.05
2023-04-22T11:02:16.752Z,3.40
2023-04-22T11:06:30.571Z,2.75
2023-04-22T11:10:45.916Z,3.10
2023-04-22T11:14:59.327Z,3.35
2023-04-22T11:19:11.658Z,3.22
2023-04-22T11:23:28.432Z,3.35
2023-04-22T11:27:43.764Z,2.70
2023-04-22T11:31:57.901Z,3.10
2023-04-22T11:36:14.067Z,3.40
2023-04-22T11:40:33.324Z,3.38
2023-04-22T11:44:47.710Z,3.50
2023-04-22T11:49:14.086Z,3.03
2023-04-22T11:53:26.626Z,3.10
2023-04-22T11:57:39.264Z,2.90
2023-04-22T12:01:52.746Z,2.90
2023-04-22T12:06:05.782Z,3.35
2023-04-22T12:10:18.157Z,3.80
2023-04-22T12:14:34.749Z,4.50
2023-04-22T12:18:52.306Z,5.07
2023-04-22T12:23:04.795Z,4.90
2023-04-22T12:27:17.392Z,4.97
2023-04-22T12:31:29.907Z,5.60
2023-04-22T12:35:42.570Z,5.88
2023-04-22T12:39:55.006Z,5.93
2023-04-22T12:44:08.565Z,7.63
2023-04-22T12:48:21.189Z,6.55
2023-04-22T12:52:35.490Z,6.90
2023-04-22T12:56:48.864Z,6.55
2023-04-22T13:01:01.276Z,6.72
2023-04-22T13:05:14.242Z,6.53
2023-04-22T13:09:27.525Z,6.30
2023-04-22T13:13:39.823Z,5.30
2023-04-22T13:17:52.602Z,4.63
2023-04-22T13:22:05.053Z,4.88
2023-04-22T13:26:17.461Z,4.88
2023-04-22T13:30:29.800Z,4.75
2023-04-22T13:34:42.192Z,4.50
2023-04-22T13:38:54.664Z,5.07
2023-04-22T13:43:09.621Z,4.47
2023-04-22T13:47:22.090Z,4.85
2023-04-22T13:51:35.123Z,4.45
2023-04-22T13:55:47.505Z,3.60
2023-04-22T14:00:00.196Z,3.58
2023-04-22T14:04:13.933Z,3.90
2023-04-22T14:08:26.672Z,4.20
2023-04-22T14:12:41.619Z,3.78
2023-04-22T14:16:54.072Z,4.10
2023-04-22T14:21:09.575Z,3.58
2023-04-22T14:25:22.159Z,3.50
2023-04-22T14:29:34.587Z,4.00
2023-04-22T14:33:47.049Z,4.30
2023-04-22T14:37:59.533Z,3.78
2023-04-22T14:42:11.848Z,3.80
2023-04-22T14:46:24.451Z,3.75
2023-04-22T14:50:36.987Z,3.38
2023-04-22T14:54:51.808Z,4.05
2023-04-22T14:59:04.535Z,3.63
2023-04-22T15:03:17.088Z,3.63
2023-04-22T15:07:29.659Z,4.05
2023-04-22T15:11:42.165Z,4.32
2023-04-22T15:15:54.657Z,4.15
2023-04-22T15:20:09.226Z,3.80
2023-04-22T15:24:21.852Z,4.63
2023-04-22T15:28:34.247Z,4.15
2023-04-22T15:32:46.668Z,4.15
2023-04-22T15:36:58.989Z,3.63
2023-04-22T15:41:11.388Z,3.58
2023-04-22T15:45:23.772Z,3.30
2023-04-22T15:49:38.640Z,3.88
2023-04-22T15:53:51.156Z,3.90
2023-04-22T15:58:03.421Z,3.80
2023-04-22T16:02:15.932Z,4.22
2023-04-22T16:06:28.395Z,4.65
2023-04-22T16:10:40.788Z,4.15
2023-04-22T16:14:53.291Z,4.55
2023-04-22T16:19:05.707Z,5.30
2023-04-22T16:23:18.071Z,5.30
2023-04-22T16:27:31.142Z,5.13
2023-04-22T16:31:44.101Z,4.90
2023-04-22T16:35:56.515Z,4.65
2023-04-22T16:40:09.502Z,4.70
2023-04-22T16:44:21.794Z,5.30
2023-04-22T16:48:34.129Z,5.25
2023-04-22T16:52:46.542Z,4.97
2023-04-22T16:56:58.913Z,5.05
2023-04-22T17:01:11.371Z,4.65
2023-04-22T17:05:23.800Z,5.57
2023-04-22T17:09:36.252Z,5.80
2023-04-22T17:13:48.631Z,5.88
2023-04-22T17:18:02.234Z,6.10
2023-04-22T17:22:14.643Z,6.80
2023-04-22T17:26:27.109Z,5.45
2023-04-22T17:30:39.628Z,6.47
2023-04-22T17:34:52.111Z,6.82
2023-04-22T17:39:04.580Z,7.30
2023-04-22T17:43:16.842Z,8.98
2023-04-22T17:47:29.893Z,9.38
2023-04-22T17:51:43.347Z,9.73
2023-04-22T17:55:55.807Z,8.60
2023-04-22T18:00:08.871Z,8.57
2023-04-22T18:04:24.208Z,8.18
2023-04-22T18:08:36.666Z,9.00
2023-04-22T18:12:50.021Z,11.70
2023-04-22T18:17:03.293Z,10.15
2023-04-22T18:21:15.932Z,11.95
2023-04-22T18:25:28.245Z,12.50
2023-04-22T18:29:40.864Z,12.57
2023-04-22T18:33:53.395Z,12.98
2023-04-22T18:38:06.924Z,12.98
2023-04-22T18:42:19.317Z,11.73
2023-04-22T18:46:31.823Z,11.20
2023-04-22T18:50:44.215Z,11.68
2023-04-22T18:54:57.946Z,11.95
2023-04-22T18:59:10.618Z,13.00
2023-04-22T19:03:27.003Z,12.48
2023-04-22T19:07:42.482Z,11.90
2023-04-22T19:11:56.348Z,12.25
2023-04-22T19:16:08.778Z,11.52
2023-04-22T19:20:21.306Z,12.75
2023-04-22T19:24:35.563Z,16.20
2023-04-22T19:28:49.010Z,12.35
2023-04-22T19:33:02.089Z,12.75
2023-04-22T19:37:14.655Z,13.10
2023-04-22T19:41:27.142Z,15.55
2023-04-22T19:45:39.543Z,14.05
2023-04-22T19:49:52.287Z,13.85
2023-04-22T19:54:05.385Z,14.13
2023-04-22T19:58:17.895Z,13.18
2023-04-22T20:02:30.696Z,13.98
2023-04-22T20:06:48.754Z,15.55
2023-04-22T20:11:01.401Z,14.52
2023-04-22T20:15:14.316Z,12.60
2023-04-22T20:19:28.617Z,14.90
2023-04-22T20:23:42.434Z,15.85
2023-04-22T20:27:56.576Z,13.43
2023-04-22T20:32:09.835Z,12.70
2023-04-22T20:36:24.468Z,15.07
2023-04-22T20:40:38.339Z,16.63
2023-04-22T20:44:50.663Z,13.52
2023-04-22T20:49:03.020Z,14.05
2023-04-22T20:53:15.342Z,14.43
2023-04-22T20:57:27.803Z,15.27
2023-04-22T21:01:41.275Z,13.02
2023-04-22T21:05:54.187Z,13.40
2023-04-22T21:10:07.642Z,13.20
2023-04-22T21:14:22.440Z,13.98
2023-04-22T21:18:37.182Z,13.60
2023-04-22T21:22:49.705Z,13.23
2023-04-22T21:27:03.224Z,13.15
2023-04-22T21:31:16.317Z,14.02
2023-04-22T21:35:28.816Z,14.00
2023-04-22T21:39:41.440Z,14.55
2023-04-22T21:43:53.912Z,14.05
2023-04-22T21:48:06.328Z,14.07
2023-04-22T21:52:19.208Z,15.13
2023-04-22T21:56:34.611Z,14.82
2023-04-22T22:00:46.982Z,16.27
2023-04-22T22:04:59.340Z,15.55
2023-04-22T22:09:12.685Z,14.10
2023-04-22T22:13:25.291Z,14.65
2023-04-22T22:17:38.486Z,13.85
2023-04-22T22:21:51.558Z,14.23
2023-04-22T22:26:04.023Z,14.30
2023-04-22T22:30:17.500Z,15.00
2023-04-22T22:34:29.938Z,14.88
2023-04-22T22:38:42.283Z,15.43
2023-04-22T22:42:57.526Z,14.23
2023-04-22T22:47:11.199Z,13.63
2023-04-22T22:51:23.616Z,13.68
2023-04-22T22:55:36.045Z,13.45
2023-04-22T22:59:48.586Z,12.30
2023-04-22T23:04:01.128Z,10.98
2023-04-22T23:08:13.724Z,10.48
2023-04-22T23:12:26.300Z,9.57
2023-04-22T23:16:38.992Z,9.40
2023-04-22T23:20:52.232Z,9.90
2023-04-22T23:25:05.290Z,9.35
2023-04-22T23:29:19.148Z,9.57
2023-04-22T23:33:32.885Z,9.77
2023-04-22T23:37:48.339Z,9.55
2023-04-22T23:42:01.393Z,12.25
2023-04-22T23:46:15.263Z,14.23
2023-04-22T23:50:30.300Z,13.05
2023-04-22T23:54:44.792Z,11.38
2023-04-22T23:58:57.926Z,9.77
